Marple, United Kingdom
Current Conditions -  °F | °C
As of 7:20 PM on Tuesday 21 Oct 2014 (Local Time) from EGCC Reporting Station
Scattered Clouds Scattered Clouds  
Wind Chill: 39°   Ceiling: Unl
Heat Index: 46°   Visibility: 6mi
Dew Point: 39°   Wind: 18mph
Humidity: 76%   Direction: 300°WNW
Pressure: 29.94"   Gusts: 31mph
Location:  53.39°N, 2.06°W
Report Text: EGCC 211820Z 30016G27KT 9999 FEW025TCU SCT039 08/04 Q1014 TEMPO SHRA
Loading
Personal Weather Stations






























Interactive Weather Map
Tropical Storm Tracking
New forecast layout! Learn more

10-Day Weather Forecast

Advertisements
Track Severe Weather on mobile